sensor_id;sensor_type;location;lat;lon;timestamp;P1;durP1;ratioP1;P2;durP2;ratioP2
71867;SDS011;59738;48.324;14.230;2022-12-11T00:00:09;10.23;;;5.43;;
71867;SDS011;59738;48.324;14.230;2022-12-11T00:02:37;11.75;;;6.13;;
71867;SDS011;59738;48.324;14.230;2022-12-11T00:05:05;11.10;;;6.05;;
71867;SDS011;59738;48.324;14.230;2022-12-11T00:07:38;11.35;;;6.63;;
71867;SDS011;59738;48.324;14.230;2022-12-11T00:10:06;10.73;;;6.03;;
71867;SDS011;59738;48.324;14.230;2022-12-11T00:12:35;11.10;;;6.43;;
71867;SDS011;59738;48.324;14.230;2022-12-11T00:15:03;16.10;;;7.07;;
71867;SDS011;59738;48.324;14.230;2022-12-11T00:17:31;17.35;;;7.90;;
71867;SDS011;59738;48.324;14.230;2022-12-11T00:19:59;18.85;;;8.65;;
71867;SDS011;59738;48.324;14.230;2022-12-11T00:22:28;19.52;;;8.88;;
71867;SDS011;59738;48.324;14.230;2022-12-11T00:24:56;20.43;;;9.37;;
71867;SDS011;59738;48.324;14.230;2022-12-11T00:27:23;19.85;;;8.27;;
71867;SDS011;59738;48.324;14.230;2022-12-11T00:29:52;17.98;;;8.75;;
71867;SDS011;59738;48.324;14.230;2022-12-11T00:32:20;21.90;;;9.85;;
71867;SDS011;59738;48.324;14.230;2022-12-11T00:34:47;20.58;;;8.90;;
71867;SDS011;59738;48.324;14.230;2022-12-11T00:37:15;17.97;;;8.73;;
71867;SDS011;59738;48.324;14.230;2022-12-11T00:39:42;17.75;;;7.60;;
71867;SDS011;59738;48.324;14.230;2022-12-11T00:42:10;27.05;;;9.02;;
71867;SDS011;59738;48.324;14.230;2022-12-11T00:44:38;18.77;;;8.30;;
71867;SDS011;59738;48.324;14.230;2022-12-11T00:47:07;20.65;;;9.45;;
71867;SDS011;59738;48.324;14.230;2022-12-11T00:49:35;17.20;;;7.80;;
71867;SDS011;59738;48.324;14.230;2022-12-11T00:52:03;19.08;;;9.18;;
71867;SDS011;59738;48.324;14.230;2022-12-11T00:54:30;17.27;;;8.57;;
71867;SDS011;59738;48.324;14.230;2022-12-11T00:56:58;18.08;;;7.90;;
71867;SDS011;59738;48.324;14.230;2022-12-11T00:59:26;19.42;;;8.60;;
71867;SDS011;59738;48.324;14.230;2022-12-11T01:01:54;19.90;;;8.27;;
71867;SDS011;59738;48.324;14.230;2022-12-11T01:04:23;17.20;;;8.73;;
71867;SDS011;59738;48.324;14.230;2022-12-11T01:06:51;16.63;;;8.65;;
71867;SDS011;59738;48.324;14.230;2022-12-11T01:09:18;16.95;;;8.00;;
71867;SDS011;59738;48.324;14.230;2022-12-11T01:12:03;14.70;;;7.25;;
71867;SDS011;59738;48.324;14.230;2022-12-11T01:14:31;19.23;;;7.93;;
71867;SDS011;59738;48.324;14.230;2022-12-11T01:16:59;15.80;;;8.15;;
71867;SDS011;59738;48.324;14.230;2022-12-11T01:19:28;19.05;;;8.85;;
71867;SDS011;59738;48.324;14.230;2022-12-11T01:21:55;17.30;;;8.30;;
71867;SDS011;59738;48.324;14.230;2022-12-11T01:24:23;20.92;;;8.88;;
71867;SDS011;59738;48.324;14.230;2022-12-11T01:26:50;28.07;;;9.67;;
71867;SDS011;59738;48.324;14.230;2022-12-11T01:29:18;28.25;;;9.30;;
71867;SDS011;59738;48.324;14.230;2022-12-11T01:31:46;46.70;;;10.50;;
71867;SDS011;59738;48.324;14.230;2022-12-11T01:34:13;55.58;;;9.88;;
71867;SDS011;59738;48.324;14.230;2022-12-11T01:36:42;34.83;;;9.40;;
71867;SDS011;59738;48.324;14.230;2022-12-11T01:39:09;21.57;;;9.53;;
71867;SDS011;59738;48.324;14.230;2022-12-11T01:41:37;21.45;;;9.35;;
71867;SDS011;59738;48.324;14.230;2022-12-11T01:44:06;19.10;;;8.80;;
71867;SDS011;59738;48.324;14.230;2022-12-11T01:46:40;20.92;;;9.45;;
71867;SDS011;59738;48.324;14.230;2022-12-11T01:49:09;21.67;;;9.32;;
71867;SDS011;59738;48.324;14.230;2022-12-11T01:51:38;24.00;;;9.10;;
71867;SDS011;59738;48.324;14.230;2022-12-11T01:54:10;25.30;;;10.18;;
71867;SDS011;59738;48.324;14.230;2022-12-11T01:56:38;20.98;;;9.27;;
71867;SDS011;59738;48.324;14.230;2022-12-11T01:59:08;22.73;;;9.70;;
71867;SDS011;59738;48.324;14.230;2022-12-11T02:01:38;23.95;;;9.50;;
71867;SDS011;59738;48.324;14.230;2022-12-11T02:04:07;22.07;;;9.53;;
71867;SDS011;59738;48.324;14.230;2022-12-11T02:06:36;22.25;;;9.15;;
71867;SDS011;59738;48.324;14.230;2022-12-11T02:09:05;25.95;;;10.23;;
71867;SDS011;59738;48.324;14.230;2022-12-11T02:11:39;26.65;;;10.48;;
71867;SDS011;59738;48.324;14.230;2022-12-11T02:14:16;24.15;;;10.70;;
71867;SDS011;59738;48.324;14.230;2022-12-11T02:16:49;24.13;;;10.20;;
71867;SDS011;59738;48.324;14.230;2022-12-11T02:19:29;23.67;;;9.45;;
71867;SDS011;59738;48.324;14.230;2022-12-11T02:22:02;25.55;;;10.18;;
71867;SDS011;59738;48.324;14.230;2022-12-11T02:24:38;28.65;;;11.20;;
71867;SDS011;59738;48.324;14.230;2022-12-11T02:27:19;32.10;;;8.88;;
71867;SDS011;59738;48.324;14.230;2022-12-11T02:29:54;48.57;;;9.80;;
71867;SDS011;59738;48.324;14.230;2022-12-11T02:32:25;51.47;;;10.77;;
71867;SDS011;59738;48.324;14.230;2022-12-11T02:34:56;51.47;;;8.48;;
71867;SDS011;59738;48.324;14.230;2022-12-11T02:37:28;58.65;;;10.10;;
71867;SDS011;59738;48.324;14.230;2022-12-11T02:39:57;68.60;;;11.10;;
71867;SDS011;59738;48.324;14.230;2022-12-11T02:42:26;91.27;;;11.33;;
71867;SDS011;59738;48.324;14.230;2022-12-11T02:44:56;69.35;;;10.65;;
71867;SDS011;59738;48.324;14.230;2022-12-11T02:47:25;87.93;;;11.30;;
71867;SDS011;59738;48.324;14.230;2022-12-11T02:49:54;32.20;;;8.85;;
71867;SDS011;59738;48.324;14.230;2022-12-11T02:52:22;21.80;;;9.02;;
71867;SDS011;59738;48.324;14.230;2022-12-11T02:54:51;23.63;;;9.63;;
71867;SDS011;59738;48.324;14.230;2022-12-11T02:57:22;27.42;;;10.13;;
71867;SDS011;59738;48.324;14.230;2022-12-11T02:59:53;21.50;;;9.50;;
71867;SDS011;59738;48.324;14.230;2022-12-11T03:02:22;26.92;;;10.00;;
71867;SDS011;59738;48.324;14.230;2022-12-11T03:04:49;17.38;;;8.65;;
71867;SDS011;59738;48.324;14.230;2022-12-11T03:07:18;19.97;;;8.73;;
71867;SDS011;59738;48.324;14.230;2022-12-11T03:09:48;23.55;;;8.70;;
71867;SDS011;59738;48.324;14.230;2022-12-11T03:12:17;25.27;;;10.75;;
71867;SDS011;59738;48.324;14.230;2022-12-11T03:14:46;32.85;;;9.82;;
71867;SDS011;59738;48.324;14.230;2022-12-11T03:17:15;21.10;;;9.68;;
71867;SDS011;59738;48.324;14.230;2022-12-11T03:19:46;22.10;;;9.40;;
71867;SDS011;59738;48.324;14.230;2022-12-11T03:22:18;19.25;;;9.18;;
71867;SDS011;59738;48.324;14.230;2022-12-11T03:24:50;20.77;;;9.20;;
71867;SDS011;59738;48.324;14.230;2022-12-11T03:27:18;20.15;;;8.98;;
71867;SDS011;59738;48.324;14.230;2022-12-11T03:29:53;22.55;;;9.75;;
71867;SDS011;59738;48.324;14.230;2022-12-11T03:32:23;22.00;;;9.67;;
71867;SDS011;59738;48.324;14.230;2022-12-11T03:34:54;20.45;;;8.98;;
71867;SDS011;59738;48.324;14.230;2022-12-11T03:37:26;23.73;;;9.13;;
71867;SDS011;59738;48.324;14.230;2022-12-11T03:39:55;20.30;;;9.77;;
71867;SDS011;59738;48.324;14.230;2022-12-11T03:42:25;20.50;;;9.43;;
71867;SDS011;59738;48.324;14.230;2022-12-11T03:44:53;17.17;;;8.40;;
71867;SDS011;59738;48.324;14.230;2022-12-11T03:47:22;23.20;;;9.85;;
71867;SDS011;59738;48.324;14.230;2022-12-11T03:49:50;23.27;;;9.20;;
71867;SDS011;59738;48.324;14.230;2022-12-11T03:52:20;17.52;;;8.90;;
71867;SDS011;59738;48.324;14.230;2022-12-11T03:54:49;21.75;;;9.52;;
71867;SDS011;59738;48.324;14.230;2022-12-11T03:57:18;22.80;;;9.37;;
71867;SDS011;59738;48.324;14.230;2022-12-11T03:59:48;26.67;;;9.63;;
71867;SDS011;59738;48.324;14.230;2022-12-11T04:02:16;18.95;;;8.50;;
71867;SDS011;59738;48.324;14.230;2022-12-11T04:04:43;24.08;;;10.05;;
71867;SDS011;59738;48.324;14.230;2022-12-11T04:07:11;18.88;;;9.10;;
71867;SDS011;59738;48.324;14.230;2022-12-11T04:09:39;20.40;;;8.53;;
71867;SDS011;59738;48.324;14.230;2022-12-11T04:12:07;16.58;;;8.38;;
71867;SDS011;59738;48.324;14.230;2022-12-11T04:14:34;20.25;;;10.25;;
71867;SDS011;59738;48.324;14.230;2022-12-11T04:17:19;20.90;;;9.13;;
71867;SDS011;59738;48.324;14.230;2022-12-11T04:20:00;20.33;;;9.27;;
71867;SDS011;59738;48.324;14.230;2022-12-11T04:22:45;35.60;;;14.93;;
71867;SDS011;59738;48.324;14.230;2022-12-11T04:25:32;26.85;;;14.23;;
71867;SDS011;59738;48.324;14.230;2022-12-11T04:27:59;22.83;;;10.23;;
71867;SDS011;59738;48.324;14.230;2022-12-11T04:30:27;23.20;;;9.57;;
71867;SDS011;59738;48.324;14.230;2022-12-11T04:32:54;20.48;;;9.32;;
71867;SDS011;59738;48.324;14.230;2022-12-11T04:35:22;21.80;;;8.93;;
71867;SDS011;59738;48.324;14.230;2022-12-11T04:37:50;19.08;;;8.63;;
71867;SDS011;59738;48.324;14.230;2022-12-11T04:40:18;22.90;;;9.88;;
71867;SDS011;59738;48.324;14.230;2022-12-11T04:42:47;19.38;;;8.98;;
71867;SDS011;59738;48.324;14.230;2022-12-11T04:45:15;20.52;;;9.55;;
71867;SDS011;59738;48.324;14.230;2022-12-11T04:47:43;20.00;;;8.80;;
71867;SDS011;59738;48.324;14.230;2022-12-11T04:50:11;21.63;;;9.40;;
71867;SDS011;59738;48.324;14.230;2022-12-11T04:52:39;24.13;;;9.70;;
71867;SDS011;59738;48.324;14.230;2022-12-11T04:55:07;20.83;;;9.85;;
71867;SDS011;59738;48.324;14.230;2022-12-11T04:57:35;24.55;;;8.98;;
71867;SDS011;59738;48.324;14.230;2022-12-11T05:00:05;23.10;;;10.43;;
71867;SDS011;59738;48.324;14.230;2022-12-11T05:02:35;22.17;;;10.63;;
71867;SDS011;59738;48.324;14.230;2022-12-11T05:05:04;23.95;;;10.48;;
71867;SDS011;59738;48.324;14.230;2022-12-11T05:07:32;19.50;;;9.70;;
71867;SDS011;59738;48.324;14.230;2022-12-11T05:10:00;20.73;;;9.38;;
71867;SDS011;59738;48.324;14.230;2022-12-11T05:12:27;22.73;;;10.90;;
71867;SDS011;59738;48.324;14.230;2022-12-11T05:14:55;27.02;;;11.10;;
71867;SDS011;59738;48.324;14.230;2022-12-11T05:17:24;24.35;;;11.07;;
71867;SDS011;59738;48.324;14.230;2022-12-11T05:19:51;22.45;;;10.60;;
71867;SDS011;59738;48.324;14.230;2022-12-11T05:22:19;25.30;;;11.98;;
71867;SDS011;59738;48.324;14.230;2022-12-11T05:24:47;27.37;;;11.40;;
71867;SDS011;59738;48.324;14.230;2022-12-11T05:27:14;29.73;;;11.77;;
71867;SDS011;59738;48.324;14.230;2022-12-11T05:29:42;26.35;;;11.80;;
71867;SDS011;59738;48.324;14.230;2022-12-11T05:32:09;24.15;;;11.63;;
71867;SDS011;59738;48.324;14.230;2022-12-11T05:34:38;23.85;;;10.05;;
71867;SDS011;59738;48.324;14.230;2022-12-11T05:37:06;25.63;;;10.17;;
71867;SDS011;59738;48.324;14.230;2022-12-11T05:39:34;28.02;;;11.65;;
71867;SDS011;59738;48.324;14.230;2022-12-11T05:42:01;22.58;;;10.60;;
71867;SDS011;59738;48.324;14.230;2022-12-11T05:44:28;21.92;;;10.68;;
71867;SDS011;59738;48.324;14.230;2022-12-11T05:46:56;25.40;;;11.43;;
71867;SDS011;59738;48.324;14.230;2022-12-11T05:49:24;23.50;;;11.27;;
71867;SDS011;59738;48.324;14.230;2022-12-11T05:51:53;24.10;;;11.45;;
71867;SDS011;59738;48.324;14.230;2022-12-11T05:54:20;24.58;;;10.60;;
71867;SDS011;59738;48.324;14.230;2022-12-11T05:56:48;29.05;;;11.55;;
71867;SDS011;59738;48.324;14.230;2022-12-11T05:59:16;23.92;;;10.32;;
71867;SDS011;59738;48.324;14.230;2022-12-11T06:01:44;21.90;;;9.80;;
71867;SDS011;59738;48.324;14.230;2022-12-11T06:04:12;28.23;;;12.00;;
71867;SDS011;59738;48.324;14.230;2022-12-11T06:06:39;23.40;;;11.30;;
71867;SDS011;59738;48.324;14.230;2022-12-11T06:09:11;24.13;;;10.70;;
71867;SDS011;59738;48.324;14.230;2022-12-11T06:11:40;25.27;;;10.43;;
71867;SDS011;59738;48.324;14.230;2022-12-11T06:14:08;21.70;;;9.73;;
71867;SDS011;59738;48.324;14.230;2022-12-11T06:16:36;23.35;;;10.95;;
71867;SDS011;59738;48.324;14.230;2022-12-11T06:19:04;22.08;;;10.98;;
71867;SDS011;59738;48.324;14.230;2022-12-11T06:21:31;26.23;;;11.52;;
71867;SDS011;59738;48.324;14.230;2022-12-11T06:24:00;23.45;;;11.02;;
71867;SDS011;59738;48.324;14.230;2022-12-11T06:26:30;21.93;;;9.33;;
71867;SDS011;59738;48.324;14.230;2022-12-11T06:28:59;23.25;;;10.45;;
71867;SDS011;59738;48.324;14.230;2022-12-11T06:31:26;23.17;;;10.38;;
71867;SDS011;59738;48.324;14.230;2022-12-11T06:33:54;24.88;;;10.15;;
71867;SDS011;59738;48.324;14.230;2022-12-11T06:36:23;23.23;;;10.43;;
71867;SDS011;59738;48.324;14.230;2022-12-11T06:38:50;20.57;;;9.47;;
71867;SDS011;59738;48.324;14.230;2022-12-11T06:41:18;25.25;;;9.68;;
71867;SDS011;59738;48.324;14.230;2022-12-11T06:43:47;27.35;;;10.00;;
71867;SDS011;59738;48.324;14.230;2022-12-11T06:46:16;25.60;;;10.07;;
71867;SDS011;59738;48.324;14.230;2022-12-11T06:48:45;20.45;;;9.27;;
71867;SDS011;59738;48.324;14.230;2022-12-11T06:51:13;20.90;;;9.47;;
71867;SDS011;59738;48.324;14.230;2022-12-11T06:53:42;23.00;;;10.50;;
71867;SDS011;59738;48.324;14.230;2022-12-11T06:56:11;20.38;;;10.05;;
71867;SDS011;59738;48.324;14.230;2022-12-11T06:58:40;24.80;;;10.48;;
71867;SDS011;59738;48.324;14.230;2022-12-11T07:01:14;22.95;;;9.30;;
71867;SDS011;59738;48.324;14.230;2022-12-11T07:03:43;24.00;;;10.07;;
71867;SDS011;59738;48.324;14.230;2022-12-11T07:06:11;24.13;;;9.40;;
71867;SDS011;59738;48.324;14.230;2022-12-11T07:08:38;26.45;;;11.43;;
71867;SDS011;59738;48.324;14.230;2022-12-11T07:11:09;24.70;;;9.77;;
71867;SDS011;59738;48.324;14.230;2022-12-11T07:13:39;20.77;;;9.82;;
71867;SDS011;59738;48.324;14.230;2022-12-11T07:16:08;27.37;;;10.43;;
71867;SDS011;59738;48.324;14.230;2022-12-11T07:18:39;20.83;;;9.68;;
71867;SDS011;59738;48.324;14.230;2022-12-11T07:21:08;23.33;;;10.43;;
71867;SDS011;59738;48.324;14.230;2022-12-11T07:23:36;21.60;;;9.02;;
71867;SDS011;59738;48.324;14.230;2022-12-11T07:26:04;20.77;;;9.02;;
71867;SDS011;59738;48.324;14.230;2022-12-11T07:28:32;19.93;;;9.27;;
71867;SDS011;59738;48.324;14.230;2022-12-11T07:31:03;25.13;;;10.52;;
71867;SDS011;59738;48.324;14.230;2022-12-11T07:33:31;22.05;;;9.52;;
71867;SDS011;59738;48.324;14.230;2022-12-11T07:36:02;19.63;;;9.98;;
71867;SDS011;59738;48.324;14.230;2022-12-11T07:38:32;22.25;;;10.27;;
71867;SDS011;59738;48.324;14.230;2022-12-11T07:41:02;24.27;;;9.97;;
71867;SDS011;59738;48.324;14.230;2022-12-11T07:43:30;22.17;;;9.60;;
71867;SDS011;59738;48.324;14.230;2022-12-11T07:45:59;20.10;;;9.48;;
71867;SDS011;59738;48.324;14.230;2022-12-11T07:48:28;23.63;;;9.63;;
71867;SDS011;59738;48.324;14.230;2022-12-11T07:51:07;20.30;;;9.00;;
71867;SDS011;59738;48.324;14.230;2022-12-11T07:53:35;25.33;;;11.10;;
71867;SDS011;59738;48.324;14.230;2022-12-11T07:56:03;22.27;;;10.15;;
71867;SDS011;59738;48.324;14.230;2022-12-11T07:58:31;23.50;;;10.10;;
71867;SDS011;59738;48.324;14.230;2022-12-11T08:00:59;25.67;;;10.82;;
71867;SDS011;59738;48.324;14.230;2022-12-11T08:03:26;24.52;;;10.32;;
71867;SDS011;59738;48.324;14.230;2022-12-11T08:05:54;26.00;;;11.03;;
71867;SDS011;59738;48.324;14.230;2022-12-11T08:08:23;25.38;;;11.05;;
71867;SDS011;59738;48.324;14.230;2022-12-11T08:10:51;20.48;;;10.50;;
71867;SDS011;59738;48.324;14.230;2022-12-11T08:13:18;22.50;;;10.73;;
71867;SDS011;59738;48.324;14.230;2022-12-11T08:15:46;22.40;;;9.85;;
71867;SDS011;59738;48.324;14.230;2022-12-11T08:18:14;27.10;;;14.53;;
71867;SDS011;59738;48.324;14.230;2022-12-11T08:20:42;23.42;;;10.90;;
71867;SDS011;59738;48.324;14.230;2022-12-11T08:23:10;22.85;;;9.38;;
71867;SDS011;59738;48.324;14.230;2022-12-11T08:25:39;23.65;;;10.35;;
71867;SDS011;59738;48.324;14.230;2022-12-11T08:28:07;20.08;;;9.10;;
71867;SDS011;59738;48.324;14.230;2022-12-11T08:30:37;24.37;;;9.97;;
71867;SDS011;59738;48.324;14.230;2022-12-11T08:33:05;23.25;;;10.40;;
71867;SDS011;59738;48.324;14.230;2022-12-11T08:38:41;18.88;;;8.70;;
71867;SDS011;59738;48.324;14.230;2022-12-11T08:41:11;19.80;;;9.02;;
71867;SDS011;59738;48.324;14.230;2022-12-11T08:43:41;20.33;;;9.60;;
71867;SDS011;59738;48.324;14.230;2022-12-11T08:46:10;19.75;;;9.52;;
71867;SDS011;59738;48.324;14.230;2022-12-11T08:48:39;18.52;;;8.93;;
71867;SDS011;59738;48.324;14.230;2022-12-11T08:51:11;20.13;;;9.15;;
71867;SDS011;59738;48.324;14.230;2022-12-11T08:53:39;17.20;;;8.63;;
71867;SDS011;59738;48.324;14.230;2022-12-11T08:56:12;22.87;;;8.73;;
71867;SDS011;59738;48.324;14.230;2022-12-11T08:58:40;14.77;;;7.43;;
71867;SDS011;59738;48.324;14.230;2022-12-11T09:01:09;19.05;;;8.68;;
71867;SDS011;59738;48.324;14.230;2022-12-11T09:03:40;18.38;;;8.82;;
71867;SDS011;59738;48.324;14.230;2022-12-11T09:06:08;19.98;;;8.88;;
71867;SDS011;59738;48.324;14.230;2022-12-11T09:08:37;23.53;;;8.97;;
71867;SDS011;59738;48.324;14.230;2022-12-11T09:11:06;16.60;;;8.10;;
71867;SDS011;59738;48.324;14.230;2022-12-11T09:13:36;17.20;;;8.65;;
71867;SDS011;59738;48.324;14.230;2022-12-11T09:16:06;16.30;;;8.68;;
71867;SDS011;59738;48.324;14.230;2022-12-11T09:18:35;15.63;;;7.88;;
71867;SDS011;59738;48.324;14.230;2022-12-11T09:21:15;17.97;;;8.50;;
71867;SDS011;59738;48.324;14.230;2022-12-11T09:23:58;18.23;;;7.78;;
71867;SDS011;59738;48.324;14.230;2022-12-11T09:26:28;14.68;;;7.90;;
71867;SDS011;59738;48.324;14.230;2022-12-11T09:28:58;22.10;;;9.57;;
71867;SDS011;59738;48.324;14.230;2022-12-11T09:31:27;20.65;;;10.00;;
71867;SDS011;59738;48.324;14.230;2022-12-11T09:33:56;17.60;;;8.30;;
71867;SDS011;59738;48.324;14.230;2022-12-11T09:36:26;18.25;;;9.30;;
71867;SDS011;59738;48.324;14.230;2022-12-11T09:38:58;18.90;;;9.02;;
71867;SDS011;59738;48.324;14.230;2022-12-11T09:41:37;18.33;;;8.57;;
71867;SDS011;59738;48.324;14.230;2022-12-11T09:44:20;20.80;;;10.13;;
71867;SDS011;59738;48.324;14.230;2022-12-11T09:46:55;17.13;;;7.93;;
71867;SDS011;59738;48.324;14.230;2022-12-11T09:49:24;19.92;;;9.95;;
71867;SDS011;59738;48.324;14.230;2022-12-11T09:51:58;17.63;;;8.32;;
71867;SDS011;59738;48.324;14.230;2022-12-11T09:54:31;17.92;;;8.38;;
71867;SDS011;59738;48.324;14.230;2022-12-11T09:57:02;17.75;;;8.60;;
71867;SDS011;59738;48.324;14.230;2022-12-11T09:59:38;16.57;;;7.43;;
71867;SDS011;59738;48.324;14.230;2022-12-11T10:02:16;16.73;;;7.93;;
71867;SDS011;59738;48.324;14.230;2022-12-11T10:04:53;15.20;;;8.25;;
71867;SDS011;59738;48.324;14.230;2022-12-11T10:07:29;17.17;;;7.88;;
71867;SDS011;59738;48.324;14.230;2022-12-11T10:10:02;30.90;;;17.60;;
71867;SDS011;59738;48.324;14.230;2022-12-11T10:12:36;16.43;;;9.17;;
71867;SDS011;59738;48.324;14.230;2022-12-11T10:15:13;16.08;;;7.53;;
71867;SDS011;59738;48.324;14.230;2022-12-11T10:17:46;14.88;;;7.43;;
71867;SDS011;59738;48.324;14.230;2022-12-11T10:20:16;15.80;;;8.38;;
71867;SDS011;59738;48.324;14.230;2022-12-11T10:22:47;15.60;;;7.93;;
71867;SDS011;59738;48.324;14.230;2022-12-11T10:25:19;19.93;;;9.10;;
71867;SDS011;59738;48.324;14.230;2022-12-11T10:27:47;16.35;;;7.60;;
71867;SDS011;59738;48.324;14.230;2022-12-11T10:30:17;16.85;;;7.85;;
71867;SDS011;59738;48.324;14.230;2022-12-11T10:32:49;16.48;;;8.38;;
71867;SDS011;59738;48.324;14.230;2022-12-11T10:35:21;15.20;;;7.35;;
71867;SDS011;59738;48.324;14.230;2022-12-11T10:37:54;16.43;;;7.47;;
71867;SDS011;59738;48.324;14.230;2022-12-11T10:40:24;16.40;;;7.65;;
71867;SDS011;59738;48.324;14.230;2022-12-11T10:42:52;15.18;;;7.80;;
71867;SDS011;59738;48.324;14.230;2022-12-11T10:45:21;16.27;;;8.00;;
71867;SDS011;59738;48.324;14.230;2022-12-11T10:47:48;15.15;;;8.38;;
71867;SDS011;59738;48.324;14.230;2022-12-11T10:50:24;17.07;;;7.80;;
71867;SDS011;59738;48.324;14.230;2022-12-11T10:52:52;20.38;;;8.32;;
71867;SDS011;59738;48.324;14.230;2022-12-11T10:55:21;17.42;;;8.63;;
71867;SDS011;59738;48.324;14.230;2022-12-11T10:57:55;15.30;;;7.90;;
71867;SDS011;59738;48.324;14.230;2022-12-11T11:00:34;15.05;;;7.35;;
71867;SDS011;59738;48.324;14.230;2022-12-11T11:03:03;14.43;;;7.23;;
71867;SDS011;59738;48.324;14.230;2022-12-11T11:05:32;15.00;;;7.82;;
71867;SDS011;59738;48.324;14.230;2022-12-11T11:08:02;16.33;;;8.10;;
71867;SDS011;59738;48.324;14.230;2022-12-11T11:10:54;18.83;;;9.02;;
71867;SDS011;59738;48.324;14.230;2022-12-11T11:13:23;18.70;;;9.23;;
71867;SDS011;59738;48.324;14.230;2022-12-11T11:15:58;18.70;;;8.93;;
71867;SDS011;59738;48.324;14.230;2022-12-11T11:18:27;15.50;;;9.05;;
71867;SDS011;59738;48.324;14.230;2022-12-11T11:20:57;17.70;;;9.05;;
71867;SDS011;59738;48.324;14.230;2022-12-11T11:23:26;17.80;;;8.82;;
71867;SDS011;59738;48.324;14.230;2022-12-11T11:25:56;16.45;;;8.30;;
71867;SDS011;59738;48.324;14.230;2022-12-11T11:28:26;19.93;;;9.33;;
71867;SDS011;59738;48.324;14.230;2022-12-11T11:30:56;19.63;;;9.55;;
71867;SDS011;59738;48.324;14.230;2022-12-11T11:33:28;20.27;;;10.02;;
71867;SDS011;59738;48.324;14.230;2022-12-11T11:36:00;16.48;;;8.20;;
71867;SDS011;59738;48.324;14.230;2022-12-11T11:38:29;17.50;;;9.05;;
71867;SDS011;59738;48.324;14.230;2022-12-11T11:41:05;19.63;;;9.83;;
71867;SDS011;59738;48.324;14.230;2022-12-11T11:43:39;16.85;;;7.72;;
71867;SDS011;59738;48.324;14.230;2022-12-11T11:46:13;14.63;;;7.35;;
71867;SDS011;59738;48.324;14.230;2022-12-11T11:48:45;19.58;;;8.90;;
71867;SDS011;59738;48.324;14.230;2022-12-11T11:51:19;18.08;;;8.55;;
71867;SDS011;59738;48.324;14.230;2022-12-11T11:53:49;16.10;;;8.27;;
71867;SDS011;59738;48.324;14.230;2022-12-11T11:56:19;17.42;;;9.02;;
71867;SDS011;59738;48.324;14.230;2022-12-11T11:58:56;15.80;;;7.97;;
71867;SDS011;59738;48.324;14.230;2022-12-11T12:01:29;13.60;;;7.65;;
71867;SDS011;59738;48.324;14.230;2022-12-11T12:03:56;17.33;;;8.70;;
71867;SDS011;59738;48.324;14.230;2022-12-11T12:06:30;17.73;;;8.07;;
71867;SDS011;59738;48.324;14.230;2022-12-11T12:09:06;18.15;;;8.07;;
71867;SDS011;59738;48.324;14.230;2022-12-11T12:11:43;18.58;;;9.40;;
71867;SDS011;59738;48.324;14.230;2022-12-11T12:14:13;18.42;;;8.48;;
71867;SDS011;59738;48.324;14.230;2022-12-11T12:16:48;15.98;;;8.20;;
71867;SDS011;59738;48.324;14.230;2022-12-11T12:19:27;13.30;;;7.03;;
71867;SDS011;59738;48.324;14.230;2022-12-11T12:22:07;13.60;;;7.13;;
71867;SDS011;59738;48.324;14.230;2022-12-11T12:24:49;19.92;;;8.00;;
71867;SDS011;59738;48.324;14.230;2022-12-11T12:27:26;17.75;;;7.75;;
71867;SDS011;59738;48.324;14.230;2022-12-11T12:29:57;14.77;;;7.68;;
71867;SDS011;59738;48.324;14.230;2022-12-11T12:32:31;16.43;;;8.10;;
71867;SDS011;59738;48.324;14.230;2022-12-11T12:35:09;18.65;;;9.25;;
71867;SDS011;59738;48.324;14.230;2022-12-11T12:37:47;16.83;;;7.47;;
71867;SDS011;59738;48.324;14.230;2022-12-11T12:40:22;16.00;;;7.57;;
71867;SDS011;59738;48.324;14.230;2022-12-11T12:42:59;14.57;;;7.03;;
71867;SDS011;59738;48.324;14.230;2022-12-11T12:45:33;15.17;;;7.80;;
71867;SDS011;59738;48.324;14.230;2022-12-11T12:48:09;18.38;;;7.90;;
71867;SDS011;59738;48.324;14.230;2022-12-11T12:50:40;19.25;;;8.45;;
71867;SDS011;59738;48.324;14.230;2022-12-11T12:53:10;15.82;;;8.13;;
71867;SDS011;59738;48.324;14.230;2022-12-11T12:55:41;15.38;;;7.68;;
71867;SDS011;59738;48.324;14.230;2022-12-11T12:58:21;18.43;;;8.47;;
71867;SDS011;59738;48.324;14.230;2022-12-11T13:00:51;13.32;;;7.85;;
71867;SDS011;59738;48.324;14.230;2022-12-11T13:03:20;15.55;;;8.20;;
71867;SDS011;59738;48.324;14.230;2022-12-11T13:05:54;17.77;;;8.48;;
71867;SDS011;59738;48.324;14.230;2022-12-11T13:08:23;19.10;;;8.93;;
71867;SDS011;59738;48.324;14.230;2022-12-11T13:10:57;17.90;;;8.37;;
71867;SDS011;59738;48.324;14.230;2022-12-11T13:13:34;17.00;;;8.20;;
71867;SDS011;59738;48.324;14.230;2022-12-11T13:16:07;18.80;;;8.70;;
71867;SDS011;59738;48.324;14.230;2022-12-11T13:18:50;16.33;;;8.75;;
71867;SDS011;59738;48.324;14.230;2022-12-11T13:21:24;18.25;;;9.15;;
71867;SDS011;59738;48.324;14.230;2022-12-11T13:24:09;15.00;;;7.97;;
71867;SDS011;59738;48.324;14.230;2022-12-11T13:26:40;13.20;;;6.22;;
71867;SDS011;59738;48.324;14.230;2022-12-11T13:29:29;20.20;;;9.23;;
71867;SDS011;59738;48.324;14.230;2022-12-11T13:32:00;16.83;;;7.47;;
71867;SDS011;59738;48.324;14.230;2022-12-11T13:34:31;17.42;;;8.45;;
71867;SDS011;59738;48.324;14.230;2022-12-11T13:37:00;18.73;;;9.00;;
71867;SDS011;59738;48.324;14.230;2022-12-11T13:39:29;16.17;;;7.72;;
71867;SDS011;59738;48.324;14.230;2022-12-11T13:41:59;19.98;;;8.00;;
71867;SDS011;59738;48.324;14.230;2022-12-11T13:44:29;15.35;;;7.47;;
71867;SDS011;59738;48.324;14.230;2022-12-11T13:46:59;19.02;;;7.38;;
71867;SDS011;59738;48.324;14.230;2022-12-11T13:49:28;16.00;;;7.97;;
71867;SDS011;59738;48.324;14.230;2022-12-11T13:51:59;17.80;;;7.80;;
71867;SDS011;59738;48.324;14.230;2022-12-11T13:54:30;16.08;;;7.90;;
71867;SDS011;59738;48.324;14.230;2022-12-11T13:57:00;15.05;;;8.10;;
71867;SDS011;59738;48.324;14.230;2022-12-11T13:59:30;17.10;;;9.32;;
71867;SDS011;59738;48.324;14.230;2022-12-11T14:02:01;14.33;;;7.10;;
71867;SDS011;59738;48.324;14.230;2022-12-11T14:08:19;14.35;;;7.13;;
71867;SDS011;59738;48.324;14.230;2022-12-11T14:10:52;15.55;;;7.95;;
71867;SDS011;59738;48.324;14.230;2022-12-11T14:13:21;17.25;;;7.93;;
71867;SDS011;59738;48.324;14.230;2022-12-11T14:15:50;17.23;;;7.53;;
71867;SDS011;59738;48.324;14.230;2022-12-11T14:18:20;19.90;;;8.55;;
71867;SDS011;59738;48.324;14.230;2022-12-11T14:20:52;16.13;;;8.15;;
71867;SDS011;59738;48.324;14.230;2022-12-11T14:23:24;14.45;;;7.25;;
71867;SDS011;59738;48.324;14.230;2022-12-11T14:25:53;16.77;;;8.07;;
71867;SDS011;59738;48.324;14.230;2022-12-11T14:28:22;13.70;;;7.20;;
71867;SDS011;59738;48.324;14.230;2022-12-11T14:30:53;16.02;;;8.00;;
71867;SDS011;59738;48.324;14.230;2022-12-11T14:33:23;16.42;;;7.47;;
71867;SDS011;59738;48.324;14.230;2022-12-11T14:35:53;15.88;;;7.78;;
71867;SDS011;59738;48.324;14.230;2022-12-11T14:38:24;14.43;;;7.40;;
71867;SDS011;59738;48.324;14.230;2022-12-11T14:40:55;18.63;;;8.17;;
71867;SDS011;59738;48.324;14.230;2022-12-11T14:43:27;13.77;;;7.10;;